Ronald Reagan Washington National Airport
KDCA : now visible

Airfield :











YOU CAN JOIN US ON...

 
LOGIN :

Register | Disclaimer

   EN    FR    IT 

 









Legend :    VFR   Marginal VFR   IFR   Intensive IFR   Very Intensive IFR
Visi :
Ceiling :
>= 8 km
>= 3000ft
5 to 8 km
1000 to 3000 ft
1500m to 5 km
500 to 1000 ft
800 to 1500m
200 to 500 ft
< 800m
< 200 ft
Symbols :   Thunderstorms  Fog  Heavy snow  Heavy precipitations  Wind > 20 kt







- Airport Elevation : 15 ft
- IATA code : DCA


KDCA - Ronald Reagan Washington National

CURRENT METAR :
  • 191352Z 35013KT 10SM FEW140 SCT250 00/M12 A3065 RMK AO2 SLP378 T00001117

EXPIRED METARs :
  • 191252Z 34011KT 10SM SCT250 M01/M12 A3064 RMK AO2 SLP374 T10061117
  • 191152Z 34009KT 10SM FEW160 BKN250 M01/M12 A3060 RMK AO2 SLP362 T10111117 10022 21011 53028

TAF KDCA
Valid from the 19 at 12:00 until the 20 at 18:00 UTC


191132Z 1912/2018 33011G16KT P6SM SKC
FM200000 01004KT P6SM OVC150
FM200800 09004KT P6SM OVC060
FM200900 09004KT P6SM -SN OVC050
FM201100 10005KT 5SM -SN OVC015
FM201200 11005KT 1 1/2SM -SN OVC008
KZDC FIR / North America



MET'MAP, your aeronautical weather chart ! - Copyright ORBIFLY December 2007 - Disclaimer

ORBIFLY MET'MAP TEAM :

Programming & Development : Alexandra Zaïnal
Concept & Development : Baudouin d'Aumeries
Co-Development & Prog : Marc-Olivier Méhu
Technical & hardware support : Manuel Goepfert

Contact : metmap@orbifly.com




SOURCES & CREDITS :

   NOAA       Earth
Advisory